createdAt,value
2017-04-11T00:00:22.292Z,1014.51
2017-04-11T00:01:03.197Z,1014.56
2017-04-11T00:01:44.077Z,1014.61
2017-04-11T00:02:24.974Z,1014.6
2017-04-11T00:03:05.863Z,1014.56
2017-04-11T00:03:46.706Z,1014.58
2017-04-11T00:04:27.586Z,1014.59
2017-04-11T00:05:08.467Z,1014.6
2017-04-11T00:05:49.345Z,1014.58
2017-04-11T00:06:30.234Z,1014.56
2017-04-11T00:07:11.109Z,1014.55
2017-04-11T00:07:51.992Z,1014.54
2017-04-11T00:08:32.877Z,1014.59
2017-04-11T00:09:13.754Z,1014.57
2017-04-11T00:09:54.638Z,1014.64
2017-04-11T00:10:35.516Z,1014.61
2017-04-11T00:11:16.401Z,1014.65
2017-04-11T00:11:57.277Z,1014.6
2017-04-11T00:12:38.149Z,1014.6
2017-04-11T00:13:19.022Z,1014.59
2017-04-11T00:13:59.898Z,1014.63
2017-04-11T00:14:40.781Z,1014.63
2017-04-11T00:15:21.665Z,1014.6
2017-04-11T00:16:02.539Z,1014.7
2017-04-11T00:16:43.415Z,1014.61
2017-04-11T00:17:24.291Z,1014.58
2017-04-11T00:18:05.179Z,1014.64
2017-04-11T00:18:46.054Z,1014.64
2017-04-11T00:19:26.926Z,1014.66
2017-04-11T00:20:07.804Z,1014.62
2017-04-11T00:20:48.689Z,1014.67
2017-04-11T00:21:29.566Z,1014.66
2017-04-11T00:22:10.451Z,1014.62
2017-04-11T00:22:51.332Z,1014.6
2017-04-11T00:23:32.212Z,1014.63
2017-04-11T00:24:13.089Z,1014.63
2017-04-11T00:24:53.967Z,1014.67
2017-04-11T00:25:34.889Z,1014.58
2017-04-11T00:26:15.766Z,1014.57
2017-04-11T00:26:56.648Z,1014.57
2017-04-11T00:27:37.525Z,1014.57
2017-04-11T00:28:18.397Z,1014.59
2017-04-11T00:28:59.277Z,1014.56
2017-04-11T00:29:40.164Z,1014.55
2017-04-11T00:30:21.046Z,1014.55
2017-04-11T00:31:01.920Z,1014.59
2017-04-11T00:31:42.788Z,1014.63
2017-04-11T00:32:23.662Z,1014.63
2017-04-11T00:33:04.585Z,1014.61
2017-04-11T00:33:45.463Z,1014.54
2017-04-11T00:34:26.345Z,1014.62
2017-04-11T00:35:07.237Z,1014.63
2017-04-11T00:35:48.123Z,1014.67
2017-04-11T00:36:28.999Z,1014.64
2017-04-11T00:37:09.881Z,1014.69
2017-04-11T00:37:50.758Z,1014.72
2017-04-11T00:38:31.640Z,1014.66
2017-04-11T00:39:12.516Z,1014.64
2017-04-11T00:39:53.390Z,1014.68
2017-04-11T00:40:34.286Z,1014.61
2017-04-11T00:41:15.179Z,1014.62
2017-04-11T00:41:56.063Z,1014.73
2017-04-11T00:42:36.946Z,1014.65
2017-04-11T00:43:17.825Z,1014.72
2017-04-11T00:43:58.710Z,1014.69
2017-04-11T00:44:39.589Z,1014.7
2017-04-11T00:45:20.469Z,1014.64
2017-04-11T00:46:01.343Z,1014.64
2017-04-11T00:46:42.226Z,1014.62
2017-04-11T00:47:23.101Z,1014.69
2017-04-11T00:48:03.972Z,1014.68
2017-04-11T00:48:44.847Z,1014.71
2017-04-11T00:49:25.728Z,1014.78
2017-04-11T00:50:06.615Z,1014.63
2017-04-11T00:50:47.487Z,1014.58
2017-04-11T00:51:28.365Z,1014.66
2017-04-11T00:52:09.234Z,1014.64
2017-04-11T00:52:50.114Z,1014.7
2017-04-11T00:53:31.003Z,1014.61
2017-04-11T00:54:11.880Z,1014.68
2017-04-11T00:54:52.763Z,1014.68
2017-04-11T00:55:33.641Z,1014.73
2017-04-11T00:56:14.528Z,1014.71
2017-04-11T00:56:55.416Z,1014.71
2017-04-11T00:57:36.298Z,1014.7
2017-04-11T00:58:17.169Z,1014.7
2017-04-11T00:58:58.044Z,1014.66
2017-04-11T00:59:38.928Z,1014.79
2017-04-11T01:00:19.812Z,1014.7
2017-04-11T01:01:00.689Z,1014.67
2017-04-11T01:01:41.564Z,1014.67
2017-04-11T01:02:22.444Z,1014.74
2017-04-11T01:03:03.325Z,1014.59
2017-04-11T01:03:44.196Z,1014.65
2017-04-11T01:04:25.069Z,1014.76
2017-04-11T01:05:05.968Z,1014.69
2017-04-11T01:05:46.861Z,1014.66
2017-04-11T01:06:27.740Z,1014.67
2017-04-11T01:07:08.620Z,1014.64
2017-04-11T01:07:49.494Z,1014.66
2017-04-11T01:08:30.381Z,1014.66
2017-04-11T01:09:11.258Z,1014.64
2017-04-11T01:09:52.136Z,1014.79
2017-04-11T01:10:33.017Z,1014.64
2017-04-11T01:11:13.895Z,1014.64
2017-04-11T01:12:52.273Z,1014.64
2017-04-11T01:13:33.157Z,1014.67
2017-04-11T01:14:14.036Z,1014.65
2017-04-11T01:14:54.972Z,1014.67
2017-04-11T01:15:35.836Z,1014.68
2017-04-11T01:16:16.708Z,1014.64
2017-04-11T01:16:59.325Z,1014.72
2017-04-11T01:17:41.733Z,1014.69
2017-04-11T01:18:22.617Z,1014.69
2017-04-11T01:19:03.498Z,1014.71
2017-04-11T01:19:44.396Z,1014.67
2017-04-11T01:20:25.272Z,1014.72
2017-04-11T01:21:06.148Z,1014.69
2017-04-11T01:21:47.019Z,1014.71
2017-04-11T01:22:27.891Z,1014.67
2017-04-11T01:23:08.766Z,1014.71
2017-04-11T01:23:49.642Z,1014.7
2017-04-11T01:24:30.517Z,1014.62
2017-04-11T01:25:11.395Z,1014.66
2017-04-11T01:25:52.273Z,1014.69
2017-04-11T01:26:33.155Z,1014.59
2017-04-11T01:27:14.028Z,1014.67
2017-04-11T01:27:54.900Z,1014.63
2017-04-11T01:28:35.788Z,1014.65
2017-04-11T01:29:16.672Z,1014.64
2017-04-11T01:29:57.551Z,1014.65
2017-04-11T01:30:40.320Z,1014.6
2017-04-11T01:31:21.201Z,1014.74
2017-04-11T01:32:02.074Z,1014.63
2017-04-11T01:32:42.955Z,1014.64
2017-04-11T01:33:23.835Z,1014.64
2017-04-11T01:34:04.718Z,1014.73
2017-04-11T01:34:45.594Z,1014.7
2017-04-11T01:35:26.468Z,1014.68
2017-04-11T01:36:07.351Z,1014.65
2017-04-11T01:36:48.231Z,1014.6
2017-04-11T01:37:29.111Z,1014.67
2017-04-11T01:38:09.991Z,1014.65
2017-04-11T01:38:50.874Z,1014.66
2017-04-11T01:39:31.752Z,1014.58
2017-04-11T01:40:12.625Z,1014.67
2017-04-11T01:40:53.502Z,1014.68
2017-04-11T01:41:34.379Z,1014.61
2017-04-11T01:42:16.833Z,1014.67
2017-04-11T01:42:57.712Z,1014.64
2017-04-11T01:43:38.593Z,1014.67
2017-04-11T01:44:19.467Z,1014.71
2017-04-11T01:45:00.344Z,1014.67
2017-04-11T01:45:41.222Z,1014.68
2017-04-11T01:46:22.093Z,1014.71
2017-04-11T01:47:02.969Z,1014.72
2017-04-11T01:47:45.738Z,1014.69
2017-04-11T01:48:26.612Z,1014.68
2017-04-11T01:49:07.486Z,1014.66
2017-04-11T01:49:48.361Z,1014.7
2017-04-11T01:50:29.235Z,1014.68
2017-04-11T01:51:10.122Z,1014.65
2017-04-11T01:51:50.989Z,1014.69
2017-04-11T01:52:31.867Z,1014.68
2017-04-11T01:53:12.771Z,1014.7
2017-04-11T01:53:53.625Z,1014.7
2017-04-11T01:54:34.510Z,1014.66
2017-04-11T01:55:15.388Z,1014.64
2017-04-11T01:55:56.267Z,1014.66
2017-04-11T01:56:37.144Z,1014.72
2017-04-11T01:57:18.020Z,1014.73
2017-04-11T01:57:58.897Z,1014.78
2017-04-11T01:58:39.774Z,1014.68
2017-04-11T01:59:20.659Z,1014.8
2017-04-11T02:00:01.530Z,1014.76
2017-04-11T02:00:44.328Z,1014.73
2017-04-11T02:01:25.207Z,1014.77
2017-04-11T02:02:06.092Z,1014.8
2017-04-11T02:02:46.973Z,1014.75
2017-04-11T02:03:29.832Z,1014.81
2017-04-11T02:04:10.719Z,1014.74
2017-04-11T02:04:51.589Z,1014.72
2017-04-11T02:05:32.470Z,1014.77
2017-04-11T02:06:13.356Z,1014.82
2017-04-11T02:06:55.961Z,1014.78
2017-04-11T02:07:38.474Z,1014.81
2017-04-11T02:08:19.355Z,1014.74
2017-04-11T02:09:00.273Z,1014.9
2017-04-11T02:09:41.159Z,1014.85
2017-04-11T02:10:22.027Z,1014.84
2017-04-11T02:11:04.607Z,1014.87
2017-04-11T02:11:47.460Z,1014.86
2017-04-11T02:12:28.340Z,1014.85
2017-04-11T02:13:13.738Z,1014.85
2017-04-11T02:13:54.641Z,1014.83
2017-04-11T02:14:35.519Z,1014.9
2017-04-11T02:15:17.960Z,1014.88
2017-04-11T02:15:58.837Z,1014.93
2017-04-11T02:16:39.717Z,1014.91
2017-04-11T02:17:20.591Z,1014.96
2017-04-11T02:18:01.465Z,1014.86
2017-04-11T02:18:42.344Z,1014.89
2017-04-11T02:19:23.218Z,1014.9
2017-04-11T02:20:04.090Z,1014.96
2017-04-11T02:20:44.964Z,1014.92
2017-04-11T02:21:25.841Z,1014.97
2017-04-11T02:22:06.722Z,1014.96
2017-04-11T02:22:49.108Z,1014.93
2017-04-11T02:23:29.993Z,1014.9
2017-04-11T02:24:10.864Z,1014.96
2017-04-11T02:24:51.740Z,1014.91
2017-04-11T02:25:32.625Z,1014.91
2017-04-11T02:26:15.320Z,1014.94
2017-04-11T02:26:56.200Z,1014.85
2017-04-11T02:27:37.069Z,1014.91
2017-04-11T02:28:17.951Z,1014.93
2017-04-11T02:28:58.831Z,1014.87
2017-04-11T02:29:39.719Z,1014.9
2017-04-11T02:30:20.591Z,1014.82
2017-04-11T02:31:01.455Z,1014.92
2017-04-11T02:31:42.323Z,1014.88
2017-04-11T02:32:23.206Z,1014.93
2017-04-11T02:33:04.128Z,1014.98
2017-04-11T02:33:44.972Z,1014.93
2017-04-11T02:34:25.858Z,1014.91
2017-04-11T02:35:06.739Z,1014.96
2017-04-11T02:35:47.615Z,1014.92
2017-04-11T02:36:28.488Z,1014.93
2017-04-11T02:37:09.369Z,1014.98
2017-04-11T02:37:50.244Z,1014.95
2017-04-11T02:38:31.122Z,1014.96
2017-04-11T02:39:11.994Z,1014.96
2017-04-11T02:39:52.870Z,1014.96
2017-04-11T02:40:33.747Z,1014.94
2017-04-11T02:41:14.636Z,1014.96
2017-04-11T02:41:55.515Z,1015
2017-04-11T02:42:36.399Z,1014.95
2017-04-11T02:43:17.275Z,1015.02
2017-04-11T02:43:59.961Z,1015
2017-04-11T02:44:40.841Z,1015.02
2017-04-11T02:45:21.719Z,1015.01
2017-04-11T02:46:06.115Z,1015.05
2017-04-11T02:46:47.001Z,1015.04
2017-04-11T02:47:27.881Z,1015.02
2017-04-11T02:48:10.338Z,1015.04
2017-04-11T02:48:51.219Z,1014.97
2017-04-11T02:49:32.097Z,1015.05
2017-04-11T02:50:12.977Z,1014.97
2017-04-11T02:50:53.850Z,1015.08
2017-04-11T02:51:34.724Z,1015.08
2017-04-11T02:52:15.599Z,1015.09
2017-04-11T02:52:56.476Z,1015.04
2017-04-11T02:53:37.358Z,1015
2017-04-11T02:54:18.237Z,1015.03
2017-04-11T02:54:59.113Z,1015.02
2017-04-11T02:55:39.993Z,1015.01
2017-04-11T02:56:20.874Z,1015.04
2017-04-11T02:57:01.750Z,1015.01
2017-04-11T02:57:42.620Z,1015.03
2017-04-11T02:58:23.533Z,1015.01
2017-04-11T02:59:04.388Z,1014.98
2017-04-11T02:59:45.265Z,1014.95
2017-04-11T03:00:26.140Z,1014.99
2017-04-11T03:01:08.841Z,1015
2017-04-11T03:01:49.714Z,1014.99
2017-04-11T03:02:30.626Z,1015
2017-04-11T03:03:11.506Z,1014.99
2017-04-11T03:03:52.382Z,1014.99
2017-04-11T03:04:33.249Z,1015.04
2017-04-11T03:05:16.014Z,1015.01
2017-04-11T03:05:57.508Z,1015.04
2017-04-11T03:06:39.246Z,1015.07
2017-04-11T03:07:20.146Z,1015.02
2017-04-11T03:08:01.014Z,1014.96
2017-04-11T03:08:43.631Z,1015.06
2017-04-11T03:09:24.504Z,1015.07
2017-04-11T03:10:05.387Z,1015.07
2017-04-11T03:10:46.265Z,1015.02
2017-04-11T03:11:27.136Z,1015.03
2017-04-11T03:12:08.019Z,1015.02
2017-04-11T03:12:48.901Z,1015.07
2017-04-11T03:13:29.780Z,1015.13
2017-04-11T03:14:10.659Z,1015.11
2017-04-11T03:14:51.538Z,1015.13
2017-04-11T03:15:32.419Z,1015.1
2017-04-11T03:16:13.303Z,1015.2
2017-04-11T03:16:55.968Z,1015.21
2017-04-11T03:17:36.836Z,1015.15
2017-04-11T03:18:17.721Z,1015.18
2017-04-11T03:18:58.597Z,1015.08
2017-04-11T03:19:39.475Z,1015.15
2017-04-11T03:20:20.349Z,1015.16
2017-04-11T03:21:01.222Z,1015.1
2017-04-11T03:21:42.101Z,1015.08
2017-04-11T03:22:22.982Z,1015.13
2017-04-11T03:23:03.866Z,1015.13
2017-04-11T03:23:44.741Z,1015.1
2017-04-11T03:24:25.617Z,1015.03
2017-04-11T03:25:06.519Z,1015.08
2017-04-11T03:25:47.392Z,1015.15
2017-04-11T03:26:28.262Z,1015.09
2017-04-11T03:27:09.138Z,1015.12
2017-04-11T03:27:50.021Z,1015.11
2017-04-11T03:28:30.900Z,1015.16
2017-04-11T03:29:11.772Z,1015.17
2017-04-11T03:29:52.707Z,1015.19
2017-04-11T03:30:33.591Z,1015.12
2017-04-11T03:31:14.469Z,1015.19
2017-04-11T03:31:57.986Z,1015.34
2017-04-11T03:32:38.857Z,1015.2
2017-04-11T03:33:19.735Z,1015.16
2017-04-11T03:34:00.623Z,1015.18
2017-04-11T03:34:41.483Z,1015.21
2017-04-11T03:35:22.360Z,1015.29
2017-04-11T03:36:03.235Z,1015.22
2017-04-11T03:36:44.099Z,1015.21
2017-04-11T03:39:09.662Z,1015.37
2017-04-11T03:39:50.535Z,1015.21
2017-04-11T03:40:31.419Z,1015.23
2017-04-11T03:41:12.299Z,1015.26
2017-04-11T03:41:53.167Z,1015.27
2017-04-11T03:42:34.042Z,1015.23
2017-04-11T03:43:14.926Z,1015.3
2017-04-11T03:43:55.814Z,1015.3
2017-04-11T03:44:36.685Z,1015.33
2017-04-11T03:45:17.564Z,1015.34
2017-04-11T03:45:58.443Z,1015.39
2017-04-11T03:46:39.322Z,1015.38
2017-04-11T03:47:20.211Z,1015.46
2017-04-11T03:48:01.077Z,1015.42
2017-04-11T03:48:41.930Z,1015.47
2017-04-11T03:49:22.813Z,1015.43
2017-04-11T03:50:03.705Z,1015.48
2017-04-11T03:50:44.586Z,1015.49
2017-04-11T03:51:25.463Z,1015.44
2017-04-11T03:53:24.194Z,1015.55
2017-04-11T03:54:05.060Z,1015.54
2017-04-11T03:54:45.936Z,1015.59
2017-04-11T03:55:26.810Z,1015.66
2017-04-11T03:56:07.680Z,1015.63
2017-04-11T03:56:48.561Z,1015.63
2017-04-11T03:57:29.441Z,1015.59
2017-04-11T03:58:10.320Z,1015.63
2017-04-11T03:58:51.201Z,1015.66
2017-04-11T03:59:32.061Z,1015.62
2017-04-11T04:00:12.926Z,1015.68
2017-04-11T04:00:53.797Z,1015.7
2017-04-11T04:01:34.673Z,1015.72
2017-04-11T04:02:15.559Z,1015.67
2017-04-11T04:02:56.442Z,1015.63
2017-04-11T04:03:37.316Z,1015.72
2017-04-11T04:04:18.193Z,1015.75
2017-04-11T04:04:59.069Z,1015.74
2017-04-11T04:05:39.950Z,1015.74
2017-04-11T04:06:20.821Z,1015.7
2017-04-11T04:07:01.698Z,1015.82
2017-04-11T04:07:42.569Z,1015.82
2017-04-11T04:08:23.444Z,1015.73
2017-04-11T04:09:04.318Z,1015.83
2017-04-11T04:09:45.191Z,1015.73
2017-04-11T04:10:26.071Z,1015.78
2017-04-11T04:11:06.945Z,1015.78
2017-04-11T04:11:47.822Z,1015.76
2017-04-11T04:12:28.713Z,1015.78
2017-04-11T04:13:09.586Z,1015.79
2017-04-11T04:13:50.462Z,1015.79
2017-04-11T04:14:31.338Z,1015.85
2017-04-11T04:15:12.210Z,1015.85
2017-04-11T04:15:53.082Z,1015.86
2017-04-11T04:16:33.954Z,1015.87
2017-04-11T04:17:14.838Z,1015.85
2017-04-11T04:17:55.713Z,1015.81
2017-04-11T04:18:36.588Z,1015.91
2017-04-11T04:19:17.478Z,1015.9
2017-04-11T04:19:58.364Z,1015.85
2017-04-11T04:20:39.237Z,1015.88
2017-04-11T04:21:20.120Z,1015.93
2017-04-11T04:22:00.989Z,1015.87
2017-04-11T04:22:41.860Z,1015.9
2017-04-11T04:23:22.735Z,1015.89
2017-04-11T04:24:03.611Z,1015.9
2017-04-11T04:24:44.513Z,1015.85
2017-04-11T04:25:25.378Z,1015.91
2017-04-11T04:26:06.244Z,1015.94
2017-04-11T04:26:47.115Z,1015.87
2017-04-11T04:27:27.995Z,1015.94
2017-04-11T04:28:08.875Z,1015.99
2017-04-11T04:28:49.761Z,1015.95
2017-04-11T04:29:30.631Z,1015.91
2017-04-11T04:30:11.509Z,1015.93
2017-04-11T04:30:52.409Z,1015.94
2017-04-11T04:31:33.278Z,1015.95
2017-04-11T04:32:14.150Z,1015.98
2017-04-11T04:32:55.022Z,1015.96
2017-04-11T04:33:35.898Z,1015.92
2017-04-11T04:34:16.780Z,1016.01
2017-04-11T04:34:57.658Z,1016.03
2017-04-11T04:35:38.529Z,1015.97
2017-04-11T04:36:19.399Z,1016.1
2017-04-11T04:37:00.275Z,1016.04
2017-04-11T04:37:41.145Z,1016.1
2017-04-11T04:38:22.031Z,1016.08
2017-04-11T04:39:02.906Z,1016.09
2017-04-11T04:39:43.774Z,1016.12
2017-04-11T04:40:24.642Z,1016.1
2017-04-11T04:41:05.516Z,1016.21
2017-04-11T04:41:46.388Z,1016.04
2017-04-11T04:42:27.285Z,1016.1
2017-04-11T04:43:08.164Z,1016.18
2017-04-11T04:43:49.039Z,1016.19
2017-04-11T04:44:29.911Z,1016.2
2017-04-11T04:45:10.783Z,1016.14
2017-04-11T04:45:51.655Z,1016.17
2017-04-11T04:46:32.540Z,1016.22
2017-04-11T04:47:13.402Z,1016.18
2017-04-11T04:47:54.273Z,1016.21
2017-04-11T04:48:35.147Z,1016.22
2017-04-11T04:49:16.013Z,1016.19
2017-04-11T04:49:56.889Z,1016.18
2017-04-11T04:50:37.759Z,1016.21
2017-04-11T04:51:18.637Z,1016.29
2017-04-11T04:51:59.520Z,1016.29
2017-04-11T04:52:40.395Z,1016.26
2017-04-11T04:53:21.315Z,1016.33
2017-04-11T04:54:02.194Z,1016.34
2017-04-11T04:54:43.075Z,1016.38
2017-04-11T04:55:23.929Z,1016.27
2017-04-11T04:56:04.796Z,1016.26
2017-04-11T04:56:45.710Z,1016.22
2017-04-11T04:57:26.587Z,1016.34
2017-04-11T04:58:07.465Z,1016.33
2017-04-11T04:58:48.331Z,1016.32
2017-04-11T04:59:29.210Z,1016.39
2017-04-11T05:00:10.080Z,1016.35
2017-04-11T05:00:50.963Z,1016.35
2017-04-11T05:01:31.841Z,1016.31
2017-04-11T05:02:12.714Z,1016.35
2017-04-11T05:02:53.583Z,1016.35
2017-04-11T05:03:34.459Z,1016.39
2017-04-11T05:04:15.335Z,1016.4
2017-04-11T05:04:56.217Z,1016.33
2017-04-11T05:05:37.108Z,1016.32
2017-04-11T05:06:17.968Z,1016.42
2017-04-11T05:06:58.838Z,1016.37
2017-04-11T05:07:39.700Z,1016.45
2017-04-11T05:08:20.564Z,1016.36
2017-04-11T05:09:01.453Z,1016.41
2017-04-11T05:09:42.340Z,1016.41
2017-04-11T05:10:23.216Z,1016.38
2017-04-11T05:11:04.085Z,1016.5
2017-04-11T05:11:45.045Z,1016.41
2017-04-11T05:12:25.924Z,1016.39
2017-04-11T05:13:06.802Z,1016.48
2017-04-11T05:13:47.682Z,1016.39
2017-04-11T05:14:28.559Z,1016.44
2017-04-11T05:15:09.428Z,1016.41
2017-04-11T05:15:50.307Z,1016.39
2017-04-11T05:16:31.205Z,1016.4
2017-04-11T05:17:12.093Z,1016.37
2017-04-11T05:17:52.968Z,1016.42
2017-04-11T05:18:33.839Z,1016.42
2017-04-11T05:19:14.714Z,1016.43
2017-04-11T05:19:55.591Z,1016.43
2017-04-11T05:20:36.492Z,1016.38
2017-04-11T05:21:17.373Z,1016.37
2017-04-11T05:21:58.233Z,1016.49
2017-04-11T05:22:39.098Z,1016.47
2017-04-11T05:23:19.983Z,1016.44
2017-04-11T05:24:00.874Z,1016.45
2017-04-11T05:24:41.748Z,1016.48
2017-04-11T05:25:22.630Z,1016.51
2017-04-11T05:26:03.520Z,1016.43
2017-04-11T05:26:44.397Z,1016.51
2017-04-11T05:27:25.281Z,1016.42
2017-04-11T05:28:06.150Z,1016.52
2017-04-11T05:28:47.023Z,1016.5
2017-04-11T05:29:27.902Z,1016.46
2017-04-11T05:30:08.779Z,1016.49
2017-04-11T05:30:49.663Z,1016.49
2017-04-11T05:31:30.540Z,1016.46
2017-04-11T05:32:11.418Z,1016.56
2017-04-11T05:32:52.302Z,1016.58
2017-04-11T05:33:33.180Z,1016.49
2017-04-11T05:34:14.048Z,1016.48
2017-04-11T05:34:54.912Z,1016.5
2017-04-11T05:35:35.793Z,1016.47
2017-04-11T05:36:16.690Z,1016.52
2017-04-11T05:36:57.518Z,1016.49
2017-04-11T05:37:38.393Z,1016.51
2017-04-11T05:38:19.264Z,1016.56
2017-04-11T05:39:00.139Z,1016.56
2017-04-11T05:39:41.024Z,1016.52
2017-04-11T05:40:21.899Z,1016.54
2017-04-11T05:41:02.832Z,1016.64
2017-04-11T05:41:43.713Z,1016.6
2017-04-11T05:42:24.576Z,1016.53
2017-04-11T05:43:05.533Z,1016.58
2017-04-11T05:43:46.340Z,1016.64
2017-04-11T05:44:27.208Z,1016.6
2017-04-11T05:45:08.084Z,1016.63
2017-04-11T05:45:48.955Z,1016.68
2017-04-11T05:46:29.833Z,1016.62
2017-04-11T05:47:10.712Z,1016.65
2017-04-11T05:47:51.593Z,1016.64
2017-04-11T05:48:32.470Z,1016.65
2017-04-11T05:49:13.339Z,1016.73
2017-04-11T05:49:54.211Z,1016.74
2017-04-11T05:50:35.096Z,1016.78
2017-04-11T05:51:15.978Z,1016.79
2017-04-11T05:51:56.873Z,1016.71
2017-04-11T05:52:37.787Z,1016.76
2017-04-11T05:53:18.641Z,1016.83
2017-04-11T05:53:59.518Z,1016.79
2017-04-11T05:54:40.395Z,1016.75
2017-04-11T05:55:21.271Z,1016.73
2017-04-11T05:56:02.149Z,1016.85
2017-04-11T05:56:43.032Z,1016.85
2017-04-11T05:57:23.927Z,1016.83
2017-04-11T05:58:04.830Z,1016.8
2017-04-11T05:58:45.713Z,1016.82
2017-04-11T05:59:26.583Z,1016.86
2017-04-11T06:00:07.460Z,1016.88
2017-04-11T06:00:48.332Z,1016.77
2017-04-11T06:01:29.211Z,1016.85
2017-04-11T06:02:10.102Z,1016.81
2017-04-11T06:02:51.033Z,1016.85
2017-04-11T06:03:31.915Z,1016.84
2017-04-11T06:04:12.794Z,1016.92
2017-04-11T06:04:53.672Z,1016.89
2017-04-11T06:05:34.543Z,1016.96
2017-04-11T06:06:15.427Z,1016.91
2017-04-11T06:06:56.292Z,1016.91
2017-04-11T06:07:37.168Z,1016.9
2017-04-11T06:08:18.045Z,1016.94
2017-04-11T06:08:58.919Z,1016.9
2017-04-11T06:09:39.801Z,1016.97
2017-04-11T06:10:20.677Z,1017.01
2017-04-11T06:11:01.575Z,1016.89
2017-04-11T06:11:42.451Z,1016.91
2017-04-11T06:12:23.324Z,1016.92
2017-04-11T06:13:04.198Z,1016.93
2017-04-11T06:13:45.069Z,1016.96
2017-04-11T06:14:25.957Z,1016.92
2017-04-11T06:15:06.831Z,1016.94
2017-04-11T06:15:47.709Z,1016.93
2017-04-11T06:16:28.584Z,1016.97
2017-04-11T06:17:09.462Z,1016.96
2017-04-11T06:17:50.343Z,1017
2017-04-11T06:18:31.221Z,1016.97
2017-04-11T06:19:12.106Z,1017.04
2017-04-11T06:19:52.981Z,1017.05
2017-04-11T06:20:33.876Z,1017.03
2017-04-11T06:21:14.759Z,1017.01
2017-04-11T06:21:55.630Z,1016.99
2017-04-11T06:22:36.507Z,1016.98
2017-04-11T06:23:17.385Z,1016.86
2017-04-11T06:23:58.262Z,1016.87
2017-04-11T06:24:39.131Z,1016.83
2017-04-11T06:25:20.016Z,1016.93
2017-04-11T06:26:00.940Z,1016.86
2017-04-11T06:26:41.819Z,1016.88
2017-04-11T06:27:22.692Z,1017.01
2017-04-11T06:28:03.560Z,1016.93
2017-04-11T06:28:44.442Z,1016.96
2017-04-11T06:29:25.333Z,1016.99
2017-04-11T06:30:06.235Z,1017.06
2017-04-11T06:30:47.098Z,1017.05
2017-04-11T06:31:27.982Z,1016.97
2017-04-11T06:32:08.864Z,1017.04
2017-04-11T06:32:50.549Z,1017.08
2017-04-11T06:33:31.412Z,1017.04
2017-04-11T06:34:12.301Z,1017.05
2017-04-11T06:34:53.176Z,1016.99
2017-04-11T06:35:34.048Z,1017.03
2017-04-11T06:36:14.933Z,1017.05
2017-04-11T06:36:55.817Z,1017.18
2017-04-11T06:37:36.693Z,1017.11
2017-04-11T06:38:17.570Z,1017.14
2017-04-11T06:38:58.445Z,1017.11
2017-04-11T06:39:39.316Z,1017.09
2017-04-11T06:40:20.188Z,1017.1
2017-04-11T06:41:01.060Z,1017.03
2017-04-11T06:41:41.938Z,1017.17
2017-04-11T06:42:22.814Z,1016.99
2017-04-11T06:43:03.690Z,1017.14
2017-04-11T06:43:44.564Z,1017.07
2017-04-11T06:44:25.437Z,1017.17
2017-04-11T06:45:06.323Z,1017.11
2017-04-11T06:45:47.192Z,1017.17
2017-04-11T06:46:28.070Z,1017.11
2017-04-11T06:47:09.012Z,1017.2
2017-04-11T06:47:49.830Z,1017.19
2017-04-11T06:48:30.713Z,1017.1
2017-04-11T06:49:11.586Z,1017.19
2017-04-11T06:49:52.466Z,1017.15
2017-04-11T06:50:33.352Z,1017.17
2017-04-11T06:51:14.248Z,1017.13
2017-04-11T06:51:55.122Z,1017.17
2017-04-11T06:52:36.001Z,1017.19
2017-04-11T06:53:16.875Z,1017.23
2017-04-11T06:53:57.750Z,1017.17
2017-04-11T06:54:38.620Z,1017.19
2017-04-11T06:55:19.498Z,1017.17
2017-04-11T06:56:00.377Z,1017.2
2017-04-11T06:56:41.262Z,1017.19
2017-04-11T06:57:22.141Z,1017.18
2017-04-11T06:58:03.017Z,1017.17
2017-04-11T06:58:43.889Z,1017.13
2017-04-11T06:59:24.763Z,1017.19
2017-04-11T07:00:05.632Z,1017.33
2017-04-11T07:00:46.514Z,1017.16
2017-04-11T07:01:27.392Z,1017.22
2017-04-11T07:02:08.336Z,1017.14
2017-04-11T07:02:49.146Z,1017.25
2017-04-11T07:03:30.031Z,1017.2
2017-04-11T07:04:10.903Z,1017.23
2017-04-11T07:04:51.782Z,1017.12
2017-04-11T07:06:50.273Z,1017.05
2017-04-11T07:07:31.154Z,1017.06
2017-04-11T07:08:12.032Z,1017.04
2017-04-11T07:08:52.916Z,1017.09
2017-04-11T07:09:33.786Z,1017.11
2017-04-11T07:10:14.666Z,1017.1
2017-04-11T07:10:55.543Z,1017.15
2017-04-11T07:11:36.435Z,1017.15
2017-04-11T07:12:17.312Z,1017.03
2017-04-11T07:12:58.196Z,1017
2017-04-11T07:13:39.072Z,1017.02
2017-04-11T07:14:19.943Z,1017.01
2017-04-11T07:15:00.824Z,1017.03
2017-04-11T07:15:41.702Z,1017.05
2017-04-11T07:16:22.577Z,1017.09
2017-04-11T07:17:03.462Z,1017.1
2017-04-11T07:17:44.342Z,1017.06
2017-04-11T07:18:25.233Z,1017.04
2017-04-11T07:19:06.105Z,1017.04
2017-04-11T07:19:46.976Z,1017.08
2017-04-11T07:20:27.853Z,1017.02
2017-04-11T07:21:08.738Z,1017.14
2017-04-11T07:21:49.618Z,1017.1
2017-04-11T07:22:30.494Z,1017.04
2017-04-11T07:23:11.376Z,1017.06
2017-04-11T07:23:52.257Z,1017.01
2017-04-11T07:24:33.191Z,1017.12
2017-04-11T07:25:14.019Z,1017.18
2017-04-11T07:25:54.893Z,1017.13
2017-04-11T07:26:35.778Z,1017.08
2017-04-11T07:27:16.649Z,1017.08
2017-04-11T07:27:57.520Z,1017.12
2017-04-11T07:28:38.399Z,1017.1
2017-04-11T07:29:19.283Z,1017.05
2017-04-11T07:30:00.190Z,1017.09
2017-04-11T07:30:41.057Z,1017.12
2017-04-11T07:31:21.943Z,1017.12
2017-04-11T07:32:02.817Z,1017.09
2017-04-11T07:32:43.700Z,1017.07
2017-04-11T07:33:24.570Z,1017.08
2017-04-11T07:34:05.466Z,1017.05
2017-04-11T07:34:46.341Z,1017.07
2017-04-11T07:35:27.222Z,1017.08
2017-04-11T07:36:08.095Z,1017.1
2017-04-11T07:36:48.967Z,1017.06
2017-04-11T07:37:29.872Z,1017.17
2017-04-11T07:38:10.778Z,1017.16
2017-04-11T07:38:51.648Z,1017.12
2017-04-11T07:39:32.516Z,1017.11
2017-04-11T07:40:13.406Z,1017.2
2017-04-11T07:40:54.282Z,1017.21
2017-04-11T07:41:35.168Z,1017.15
2017-04-11T07:42:16.059Z,1017.21
2017-04-11T07:42:56.939Z,1017.25
2017-04-11T07:43:37.812Z,1017.27
2017-04-11T07:44:18.692Z,1017.15
2017-04-11T07:44:59.564Z,1017.16
2017-04-11T07:45:40.438Z,1017.25
2017-04-11T07:46:21.313Z,1017.27
2017-04-11T07:47:02.192Z,1017.29
2017-04-11T07:47:43.071Z,1017.25
2017-04-11T07:48:23.947Z,1017.22
2017-04-11T07:49:04.823Z,1017.3
2017-04-11T07:49:45.698Z,1017.29
2017-04-11T07:50:26.586Z,1017.25
2017-04-11T07:51:07.462Z,1017.29
2017-04-11T07:51:48.341Z,1017.29
2017-04-11T07:52:29.205Z,1017.28
2017-04-11T07:53:10.122Z,1017.27
2017-04-11T07:53:50.996Z,1017.31
2017-04-11T07:54:31.905Z,1017.29
2017-04-11T07:55:12.784Z,1017.25
2017-04-11T07:55:53.654Z,1017.36
2017-04-11T07:56:34.526Z,1017.26
2017-04-11T07:57:15.408Z,1017.42
2017-04-11T07:57:56.285Z,1017.32
2017-04-11T07:58:37.154Z,1017.39
2017-04-11T07:59:18.045Z,1017.33
2017-04-11T07:59:58.918Z,1017.3
2017-04-11T08:00:39.794Z,1017.38
2017-04-11T08:01:20.668Z,1017.33
2017-04-11T08:02:01.545Z,1017.39
2017-04-11T08:02:42.418Z,1017.32
2017-04-11T08:03:23.292Z,1017.29
2017-04-11T08:04:04.165Z,1017.29
2017-04-11T08:04:45.040Z,1017.33
2017-04-11T08:05:25.910Z,1017.23
2017-04-11T08:06:06.793Z,1017.29
2017-04-11T08:06:47.685Z,1017.3
2017-04-11T08:07:28.554Z,1017.32
2017-04-11T08:08:09.431Z,1017.34
2017-04-11T08:08:50.300Z,1017.35
2017-04-11T08:09:31.176Z,1017.41
2017-04-11T08:10:12.049Z,1017.29
2017-04-11T08:10:52.936Z,1017.37
2017-04-11T08:11:33.810Z,1017.33
2017-04-11T08:12:14.689Z,1017.34
2017-04-11T08:12:55.571Z,1017.42
2017-04-11T08:13:36.448Z,1017.36
2017-04-11T08:14:17.322Z,1017.4
2017-04-11T08:14:58.198Z,1017.4
2017-04-11T08:15:39.070Z,1017.43
2017-04-11T08:16:19.945Z,1017.41
2017-04-11T08:17:00.823Z,1017.5
2017-04-11T08:17:41.686Z,1017.48
2017-04-11T08:18:22.586Z,1017.4
2017-04-11T08:19:03.459Z,1017.45
2017-04-11T08:19:44.334Z,1017.47
2017-04-11T08:20:25.205Z,1017.47
2017-04-11T08:21:06.078Z,1017.46
2017-04-11T08:21:46.960Z,1017.33
2017-04-11T08:22:27.840Z,1017.39